sensor_id;sensor_type;location;lat;lon;timestamp;P1;durP1;ratioP1;P2;durP2;ratioP2
40373;SDS011;26079;45.958;12.492;2024-01-15T00:02:09;84.60;;;64.65;;
40373;SDS011;26079;45.958;12.492;2024-01-15T00:04:38;76.43;;;60.70;;
40373;SDS011;26079;45.958;12.492;2024-01-15T00:07:05;77.43;;;61.47;;
40373;SDS011;26079;45.958;12.492;2024-01-15T00:09:31;82.25;;;64.75;;
40373;SDS011;26079;45.958;12.492;2024-01-15T00:11:57;80.10;;;63.92;;
40373;SDS011;26079;45.958;12.492;2024-01-15T00:14:23;83.72;;;64.30;;
40373;SDS011;26079;45.958;12.492;2024-01-15T00:16:49;79.88;;;62.40;;
40373;SDS011;26079;45.958;12.492;2024-01-15T00:19:16;81.22;;;66.00;;
40373;SDS011;26079;45.958;12.492;2024-01-15T00:21:43;82.50;;;63.05;;
40373;SDS011;26079;45.958;12.492;2024-01-15T00:24:09;76.80;;;60.95;;
40373;SDS011;26079;45.958;12.492;2024-01-15T00:26:35;77.32;;;63.15;;
40373;SDS011;26079;45.958;12.492;2024-01-15T00:29:01;80.15;;;62.40;;
40373;SDS011;26079;45.958;12.492;2024-01-15T00:31:28;83.88;;;63.95;;
40373;SDS011;26079;45.958;12.492;2024-01-15T00:33:55;82.80;;;65.15;;
40373;SDS011;26079;45.958;12.492;2024-01-15T00:36:24;86.07;;;65.95;;
40373;SDS011;26079;45.958;12.492;2024-01-15T00:38:51;83.82;;;66.45;;
40373;SDS011;26079;45.958;12.492;2024-01-15T00:41:16;78.60;;;64.38;;
40373;SDS011;26079;45.958;12.492;2024-01-15T00:43:43;77.38;;;62.72;;
40373;SDS011;26079;45.958;12.492;2024-01-15T00:46:10;76.82;;;61.60;;
40373;SDS011;26079;45.958;12.492;2024-01-15T00:48:36;79.88;;;62.90;;
40373;SDS011;26079;45.958;12.492;2024-01-15T00:51:02;77.13;;;64.70;;
40373;SDS011;26079;45.958;12.492;2024-01-15T00:53:29;81.47;;;64.93;;
40373;SDS011;26079;45.958;12.492;2024-01-15T00:55:54;76.05;;;63.58;;
40373;SDS011;26079;45.958;12.492;2024-01-15T00:58:20;78.63;;;62.30;;
40373;SDS011;26079;45.958;12.492;2024-01-15T01:00:46;81.70;;;65.55;;
40373;SDS011;26079;45.958;12.492;2024-01-15T01:03:11;88.50;;;67.70;;
40373;SDS011;26079;45.958;12.492;2024-01-15T01:05:37;81.72;;;64.30;;
40373;SDS011;26079;45.958;12.492;2024-01-15T01:08:03;79.28;;;64.82;;
40373;SDS011;26079;45.958;12.492;2024-01-15T01:10:29;82.00;;;65.30;;
40373;SDS011;26079;45.958;12.492;2024-01-15T01:12:55;73.70;;;62.30;;
40373;SDS011;26079;45.958;12.492;2024-01-15T01:15:21;87.90;;;66.63;;
40373;SDS011;26079;45.958;12.492;2024-01-15T01:17:46;86.32;;;65.05;;
40373;SDS011;26079;45.958;12.492;2024-01-15T01:20:12;90.15;;;63.85;;
40373;SDS011;26079;45.958;12.492;2024-01-15T01:22:40;78.82;;;60.10;;
40373;SDS011;26079;45.958;12.492;2024-01-15T01:25:06;77.43;;;63.03;;
40373;SDS011;26079;45.958;12.492;2024-01-15T01:27:32;85.25;;;62.17;;
40373;SDS011;26079;45.958;12.492;2024-01-15T01:29:57;85.93;;;65.25;;
40373;SDS011;26079;45.958;12.492;2024-01-15T01:32:23;82.22;;;63.83;;
40373;SDS011;26079;45.958;12.492;2024-01-15T01:34:49;69.22;;;59.28;;
40373;SDS011;26079;45.958;12.492;2024-01-15T01:37:14;85.43;;;65.18;;
40373;SDS011;26079;45.958;12.492;2024-01-15T01:39:40;85.65;;;64.43;;
40373;SDS011;26079;45.958;12.492;2024-01-15T01:42:07;73.93;;;62.35;;
40373;SDS011;26079;45.958;12.492;2024-01-15T01:44:33;78.13;;;61.60;;
40373;SDS011;26079;45.958;12.492;2024-01-15T01:46:58;81.72;;;62.10;;
40373;SDS011;26079;45.958;12.492;2024-01-15T01:49:25;76.55;;;62.25;;
40373;SDS011;26079;45.958;12.492;2024-01-15T01:51:52;82.55;;;62.97;;
40373;SDS011;26079;45.958;12.492;2024-01-15T01:54:21;83.40;;;63.58;;
40373;SDS011;26079;45.958;12.492;2024-01-15T01:56:47;80.93;;;61.13;;
40373;SDS011;26079;45.958;12.492;2024-01-15T01:59:13;76.50;;;62.95;;
40373;SDS011;26079;45.958;12.492;2024-01-15T02:01:39;90.25;;;65.38;;
40373;SDS011;26079;45.958;12.492;2024-01-15T02:04:06;77.22;;;62.78;;
40373;SDS011;26079;45.958;12.492;2024-01-15T02:06:31;83.95;;;64.25;;
40373;SDS011;26079;45.958;12.492;2024-01-15T02:08:58;82.05;;;63.47;;
40373;SDS011;26079;45.958;12.492;2024-01-15T02:11:24;78.20;;;60.75;;
40373;SDS011;26079;45.958;12.492;2024-01-15T02:13:49;74.35;;;60.72;;
40373;SDS011;26079;45.958;12.492;2024-01-15T02:16:15;80.78;;;63.75;;
40373;SDS011;26079;45.958;12.492;2024-01-15T02:18:41;78.22;;;62.30;;
40373;SDS011;26079;45.958;12.492;2024-01-15T02:21:08;76.45;;;62.03;;
40373;SDS011;26079;45.958;12.492;2024-01-15T02:23:34;75.00;;;63.30;;
40373;SDS011;26079;45.958;12.492;2024-01-15T02:25:59;81.25;;;62.97;;
40373;SDS011;26079;45.958;12.492;2024-01-15T02:28:26;86.78;;;63.75;;
40373;SDS011;26079;45.958;12.492;2024-01-15T02:30:52;81.72;;;62.80;;
40373;SDS011;26079;45.958;12.492;2024-01-15T02:33:17;83.00;;;63.78;;
40373;SDS011;26079;45.958;12.492;2024-01-15T02:35:43;84.05;;;64.85;;
40373;SDS011;26079;45.958;12.492;2024-01-15T02:38:11;78.88;;;64.35;;
40373;SDS011;26079;45.958;12.492;2024-01-15T02:40:37;83.97;;;62.58;;
40373;SDS011;26079;45.958;12.492;2024-01-15T02:43:03;88.60;;;66.13;;
40373;SDS011;26079;45.958;12.492;2024-01-15T02:45:29;79.68;;;63.83;;
40373;SDS011;26079;45.958;12.492;2024-01-15T02:47:55;78.68;;;62.25;;
40373;SDS011;26079;45.958;12.492;2024-01-15T02:50:21;86.72;;;63.70;;
40373;SDS011;26079;45.958;12.492;2024-01-15T02:52:47;83.32;;;62.53;;
40373;SDS011;26079;45.958;12.492;2024-01-15T02:55:13;84.80;;;62.67;;
40373;SDS011;26079;45.958;12.492;2024-01-15T02:57:38;78.07;;;61.53;;
40373;SDS011;26079;45.958;12.492;2024-01-15T03:00:04;81.68;;;63.00;;
40373;SDS011;26079;45.958;12.492;2024-01-15T03:02:30;78.22;;;62.35;;
40373;SDS011;26079;45.958;12.492;2024-01-15T03:04:59;76.43;;;62.47;;
40373;SDS011;26079;45.958;12.492;2024-01-15T03:07:24;81.10;;;63.95;;
40373;SDS011;26079;45.958;12.492;2024-01-15T03:09:50;76.80;;;63.97;;
40373;SDS011;26079;45.958;12.492;2024-01-15T03:12:16;80.80;;;62.15;;
40373;SDS011;26079;45.958;12.492;2024-01-15T03:14:43;76.20;;;62.15;;
40373;SDS011;26079;45.958;12.492;2024-01-15T03:17:08;81.03;;;63.67;;
40373;SDS011;26079;45.958;12.492;2024-01-15T03:19:35;78.28;;;61.05;;
40373;SDS011;26079;45.958;12.492;2024-01-15T03:22:00;80.40;;;61.28;;
40373;SDS011;26079;45.958;12.492;2024-01-15T03:24:27;76.28;;;61.20;;
40373;SDS011;26079;45.958;12.492;2024-01-15T03:26:53;72.38;;;59.70;;
40373;SDS011;26079;45.958;12.492;2024-01-15T03:29:19;77.70;;;61.35;;
40373;SDS011;26079;45.958;12.492;2024-01-15T03:31:44;79.30;;;60.75;;
40373;SDS011;26079;45.958;12.492;2024-01-15T03:34:10;81.15;;;64.13;;
40373;SDS011;26079;45.958;12.492;2024-01-15T03:36:36;81.70;;;63.63;;
40373;SDS011;26079;45.958;12.492;2024-01-15T03:39:02;87.68;;;65.60;;
40373;SDS011;26079;45.958;12.492;2024-01-15T03:41:27;97.70;;;67.70;;
40373;SDS011;26079;45.958;12.492;2024-01-15T03:43:53;84.32;;;64.20;;
40373;SDS011;26079;45.958;12.492;2024-01-15T03:46:18;84.03;;;65.57;;
40373;SDS011;26079;45.958;12.492;2024-01-15T03:48:44;87.43;;;63.75;;
40373;SDS011;26079;45.958;12.492;2024-01-15T03:51:10;78.47;;;64.50;;
40373;SDS011;26079;45.958;12.492;2024-01-15T03:53:35;81.25;;;64.70;;
40373;SDS011;26079;45.958;12.492;2024-01-15T03:56:03;80.47;;;63.70;;
40373;SDS011;26079;45.958;12.492;2024-01-15T03:58:28;83.68;;;64.03;;
40373;SDS011;26079;45.958;12.492;2024-01-15T04:00:54;75.97;;;60.97;;
40373;SDS011;26079;45.958;12.492;2024-01-15T04:03:20;77.22;;;60.90;;
40373;SDS011;26079;45.958;12.492;2024-01-15T04:05:45;82.20;;;62.70;;
40373;SDS011;26079;45.958;12.492;2024-01-15T04:08:11;88.38;;;66.25;;
40373;SDS011;26079;45.958;12.492;2024-01-15T04:10:37;86.60;;;64.75;;
40373;SDS011;26079;45.958;12.492;2024-01-15T04:13:02;81.05;;;63.20;;
40373;SDS011;26079;45.958;12.492;2024-01-15T04:15:28;87.50;;;65.30;;
40373;SDS011;26079;45.958;12.492;2024-01-15T04:17:54;87.18;;;62.42;;
40373;SDS011;26079;45.958;12.492;2024-01-15T04:20:20;93.50;;;63.53;;
40373;SDS011;26079;45.958;12.492;2024-01-15T04:22:45;82.50;;;60.85;;
40373;SDS011;26079;45.958;12.492;2024-01-15T04:25:11;78.90;;;61.33;;
40373;SDS011;26079;45.958;12.492;2024-01-15T04:27:37;82.88;;;62.92;;
40373;SDS011;26079;45.958;12.492;2024-01-15T04:30:02;82.47;;;63.78;;
40373;SDS011;26079;45.958;12.492;2024-01-15T04:32:28;81.45;;;62.22;;
40373;SDS011;26079;45.958;12.492;2024-01-15T04:34:54;81.70;;;65.88;;
40373;SDS011;26079;45.958;12.492;2024-01-15T04:37:20;82.82;;;65.57;;
40373;SDS011;26079;45.958;12.492;2024-01-15T04:39:46;83.43;;;62.63;;
40373;SDS011;26079;45.958;12.492;2024-01-15T04:42:11;88.50;;;63.72;;
40373;SDS011;26079;45.958;12.492;2024-01-15T04:44:37;86.65;;;65.60;;
40373;SDS011;26079;45.958;12.492;2024-01-15T04:47:03;74.97;;;59.08;;
40373;SDS011;26079;45.958;12.492;2024-01-15T04:49:28;75.97;;;58.75;;
40373;SDS011;26079;45.958;12.492;2024-01-15T04:51:55;81.75;;;63.47;;
40373;SDS011;26079;45.958;12.492;2024-01-15T04:54:20;77.97;;;61.35;;
40373;SDS011;26079;45.958;12.492;2024-01-15T04:56:46;79.13;;;60.05;;
40373;SDS011;26079;45.958;12.492;2024-01-15T04:59:13;82.75;;;61.67;;
40373;SDS011;26079;45.958;12.492;2024-01-15T05:01:39;82.30;;;60.75;;
40373;SDS011;26079;45.958;12.492;2024-01-15T05:04:05;79.93;;;59.33;;
40373;SDS011;26079;45.958;12.492;2024-01-15T05:06:31;82.75;;;60.53;;
40373;SDS011;26079;45.958;12.492;2024-01-15T05:08:56;85.30;;;61.60;;
40373;SDS011;26079;45.958;12.492;2024-01-15T05:11:22;79.60;;;59.65;;
40373;SDS011;26079;45.958;12.492;2024-01-15T05:13:48;80.63;;;62.30;;
40373;SDS011;26079;45.958;12.492;2024-01-15T05:16:14;80.22;;;62.00;;
40373;SDS011;26079;45.958;12.492;2024-01-15T05:18:39;82.22;;;64.18;;
40373;SDS011;26079;45.958;12.492;2024-01-15T05:21:05;94.78;;;65.45;;
40373;SDS011;26079;45.958;12.492;2024-01-15T05:23:31;92.32;;;66.25;;
40373;SDS011;26079;45.958;12.492;2024-01-15T05:25:57;82.38;;;63.30;;
40373;SDS011;26079;45.958;12.492;2024-01-15T05:28:23;85.85;;;63.85;;
40373;SDS011;26079;45.958;12.492;2024-01-15T05:30:48;77.85;;;58.60;;
40373;SDS011;26079;45.958;12.492;2024-01-15T05:33:15;84.72;;;65.40;;
40373;SDS011;26079;45.958;12.492;2024-01-15T05:35:43;83.70;;;62.80;;
40373;SDS011;26079;45.958;12.492;2024-01-15T05:38:08;83.43;;;64.28;;
40373;SDS011;26079;45.958;12.492;2024-01-15T05:40:34;83.20;;;65.47;;
40373;SDS011;26079;45.958;12.492;2024-01-15T05:43:00;85.85;;;66.95;;
40373;SDS011;26079;45.958;12.492;2024-01-15T05:45:30;92.57;;;65.82;;
40373;SDS011;26079;45.958;12.492;2024-01-15T05:47:55;83.65;;;61.08;;
40373;SDS011;26079;45.958;12.492;2024-01-15T05:50:21;82.50;;;62.60;;
40373;SDS011;26079;45.958;12.492;2024-01-15T05:52:47;96.35;;;70.72;;
40373;SDS011;26079;45.958;12.492;2024-01-15T05:55:13;98.63;;;70.25;;
40373;SDS011;26079;45.958;12.492;2024-01-15T05:57:39;83.25;;;65.13;;
40373;SDS011;26079;45.958;12.492;2024-01-15T06:00:04;89.75;;;65.35;;
40373;SDS011;26079;45.958;12.492;2024-01-15T06:02:31;94.97;;;71.75;;
40373;SDS011;26079;45.958;12.492;2024-01-15T06:04:57;89.90;;;67.63;;
40373;SDS011;26079;45.958;12.492;2024-01-15T06:07:22;82.88;;;61.40;;
40373;SDS011;26079;45.958;12.492;2024-01-15T06:09:48;80.43;;;63.60;;
40373;SDS011;26079;45.958;12.492;2024-01-15T06:12:14;85.80;;;64.72;;
40373;SDS011;26079;45.958;12.492;2024-01-15T06:14:40;78.13;;;59.40;;
40373;SDS011;26079;45.958;12.492;2024-01-15T06:17:06;75.63;;;59.90;;
40373;SDS011;26079;45.958;12.492;2024-01-15T06:19:32;82.70;;;62.78;;
40373;SDS011;26079;45.958;12.492;2024-01-15T06:21:58;85.68;;;64.43;;
40373;SDS011;26079;45.958;12.492;2024-01-15T06:24:24;78.90;;;58.42;;
40373;SDS011;26079;45.958;12.492;2024-01-15T06:26:49;82.15;;;66.18;;
40373;SDS011;26079;45.958;12.492;2024-01-15T06:29:15;90.10;;;66.32;;
40373;SDS011;26079;45.958;12.492;2024-01-15T06:31:41;89.78;;;64.10;;
40373;SDS011;26079;45.958;12.492;2024-01-15T06:34:06;81.60;;;64.30;;
40373;SDS011;26079;45.958;12.492;2024-01-15T06:36:32;81.28;;;64.00;;
40373;SDS011;26079;45.958;12.492;2024-01-15T06:38:58;78.93;;;60.90;;
40373;SDS011;26079;45.958;12.492;2024-01-15T06:41:23;81.35;;;61.60;;
40373;SDS011;26079;45.958;12.492;2024-01-15T06:43:50;81.60;;;63.55;;
40373;SDS011;26079;45.958;12.492;2024-01-15T06:46:23;79.85;;;64.55;;
40373;SDS011;26079;45.958;12.492;2024-01-15T06:48:48;100.97;;;70.90;;
40373;SDS011;26079;45.958;12.492;2024-01-15T06:51:15;89.32;;;67.53;;
40373;SDS011;26079;45.958;12.492;2024-01-15T06:53:41;84.18;;;62.50;;
40373;SDS011;26079;45.958;12.492;2024-01-15T06:56:07;85.18;;;62.13;;
40373;SDS011;26079;45.958;12.492;2024-01-15T06:58:32;81.47;;;57.80;;
40373;SDS011;26079;45.958;12.492;2024-01-15T07:00:58;80.68;;;60.53;;
40373;SDS011;26079;45.958;12.492;2024-01-15T07:03:24;84.47;;;61.28;;
40373;SDS011;26079;45.958;12.492;2024-01-15T07:05:50;79.13;;;61.92;;
40373;SDS011;26079;45.958;12.492;2024-01-15T07:08:16;76.82;;;58.88;;
40373;SDS011;26079;45.958;12.492;2024-01-15T07:10:41;95.05;;;69.20;;
40373;SDS011;26079;45.958;12.492;2024-01-15T07:13:07;115.10;;;81.20;;
40373;SDS011;26079;45.958;12.492;2024-01-15T07:15:33;104.68;;;73.85;;
40373;SDS011;26079;45.958;12.492;2024-01-15T07:17:59;90.18;;;70.30;;
40373;SDS011;26079;45.958;12.492;2024-01-15T07:20:25;90.15;;;72.55;;
40373;SDS011;26079;45.958;12.492;2024-01-15T07:22:51;85.68;;;68.28;;
40373;SDS011;26079;45.958;12.492;2024-01-15T07:25:16;101.00;;;74.50;;
40373;SDS011;26079;45.958;12.492;2024-01-15T07:27:42;95.28;;;73.22;;
40373;SDS011;26079;45.958;12.492;2024-01-15T07:30:10;82.85;;;66.07;;
40373;SDS011;26079;45.958;12.492;2024-01-15T07:32:37;105.63;;;79.07;;
40373;SDS011;26079;45.958;12.492;2024-01-15T07:35:03;96.00;;;74.65;;
40373;SDS011;26079;45.958;12.492;2024-01-15T07:37:29;92.13;;;71.38;;
40373;SDS011;26079;45.958;12.492;2024-01-15T07:39:54;89.32;;;69.78;;
40373;SDS011;26079;45.958;12.492;2024-01-15T07:42:20;93.07;;;69.20;;
40373;SDS011;26079;45.958;12.492;2024-01-15T07:44:46;81.55;;;66.20;;
40373;SDS011;26079;45.958;12.492;2024-01-15T07:47:12;85.90;;;64.60;;
40373;SDS011;26079;45.958;12.492;2024-01-15T07:49:38;88.30;;;67.68;;
40373;SDS011;26079;45.958;12.492;2024-01-15T07:52:03;91.38;;;70.88;;
40373;SDS011;26079;45.958;12.492;2024-01-15T07:54:30;99.45;;;73.03;;
40373;SDS011;26079;45.958;12.492;2024-01-15T07:56:57;93.05;;;64.47;;
40373;SDS011;26079;45.958;12.492;2024-01-15T07:59:24;91.53;;;63.92;;
40373;SDS011;26079;45.958;12.492;2024-01-15T08:01:50;84.35;;;62.28;;
40373;SDS011;26079;45.958;12.492;2024-01-15T08:04:16;85.60;;;64.35;;
40373;SDS011;26079;45.958;12.492;2024-01-15T08:06:42;82.70;;;64.90;;
40373;SDS011;26079;45.958;12.492;2024-01-15T08:09:07;82.68;;;62.33;;
40373;SDS011;26079;45.958;12.492;2024-01-15T08:11:33;81.55;;;60.03;;
40373;SDS011;26079;45.958;12.492;2024-01-15T08:14:04;79.10;;;61.28;;
40373;SDS011;26079;45.958;12.492;2024-01-15T08:16:30;84.97;;;59.88;;
40373;SDS011;26079;45.958;12.492;2024-01-15T08:18:55;91.22;;;63.53;;
40373;SDS011;26079;45.958;12.492;2024-01-15T08:21:21;89.97;;;65.82;;
40373;SDS011;26079;45.958;12.492;2024-01-15T08:23:47;94.63;;;71.82;;
40373;SDS011;26079;45.958;12.492;2024-01-15T08:26:13;85.22;;;66.57;;
40373;SDS011;26079;45.958;12.492;2024-01-15T08:28:38;78.05;;;61.70;;
40373;SDS011;26079;45.958;12.492;2024-01-15T08:31:04;89.78;;;65.38;;
40373;SDS011;26079;45.958;12.492;2024-01-15T08:33:30;84.40;;;63.65;;
40373;SDS011;26079;45.958;12.492;2024-01-15T08:35:55;83.07;;;59.47;;
40373;SDS011;26079;45.958;12.492;2024-01-15T08:38:21;76.95;;;59.60;;
40373;SDS011;26079;45.958;12.492;2024-01-15T08:40:47;86.30;;;60.40;;
40373;SDS011;26079;45.958;12.492;2024-01-15T08:43:14;75.90;;;58.47;;
40373;SDS011;26079;45.958;12.492;2024-01-15T08:45:39;79.40;;;58.60;;
40373;SDS011;26079;45.958;12.492;2024-01-15T08:48:05;83.75;;;58.08;;
40373;SDS011;26079;45.958;12.492;2024-01-15T08:50:32;77.32;;;56.67;;
40373;SDS011;26079;45.958;12.492;2024-01-15T08:52:58;81.65;;;60.10;;
40373;SDS011;26079;45.958;12.492;2024-01-15T08:55:24;72.43;;;57.85;;
40373;SDS011;26079;45.958;12.492;2024-01-15T08:57:50;76.65;;;57.95;;
40373;SDS011;26079;45.958;12.492;2024-01-15T09:00:16;77.43;;;56.95;;
40373;SDS011;26079;45.958;12.492;2024-01-15T09:02:42;76.32;;;57.38;;
40373;SDS011;26079;45.958;12.492;2024-01-15T09:05:08;78.32;;;57.10;;
40373;SDS011;26079;45.958;12.492;2024-01-15T09:07:34;77.20;;;55.78;;
40373;SDS011;26079;45.958;12.492;2024-01-15T09:10:00;85.35;;;60.60;;
40373;SDS011;26079;45.958;12.492;2024-01-15T09:12:45;76.15;;;56.25;;
40373;SDS011;26079;45.958;12.492;2024-01-15T09:15:10;78.93;;;56.65;;
40373;SDS011;26079;45.958;12.492;2024-01-15T09:17:36;75.32;;;57.80;;
40373;SDS011;26079;45.958;12.492;2024-01-15T09:20:02;75.18;;;55.53;;
40373;SDS011;26079;45.958;12.492;2024-01-15T09:22:29;80.97;;;54.30;;
40373;SDS011;26079;45.958;12.492;2024-01-15T09:24:55;68.88;;;53.08;;
40373;SDS011;26079;45.958;12.492;2024-01-15T09:27:21;84.57;;;52.72;;
40373;SDS011;26079;45.958;12.492;2024-01-15T09:29:46;71.05;;;48.58;;
40373;SDS011;26079;45.958;12.492;2024-01-15T09:32:12;62.97;;;48.05;;
40373;SDS011;26079;45.958;12.492;2024-01-15T09:34:38;66.50;;;46.03;;
40373;SDS011;26079;45.958;12.492;2024-01-15T09:37:04;63.53;;;47.00;;
40373;SDS011;26079;45.958;12.492;2024-01-15T09:39:30;62.72;;;44.00;;
40373;SDS011;26079;45.958;12.492;2024-01-15T09:41:57;57.15;;;44.13;;
40373;SDS011;26079;45.958;12.492;2024-01-15T09:44:23;53.15;;;44.72;;
40373;SDS011;26079;45.958;12.492;2024-01-15T09:46:48;50.92;;;42.00;;
40373;SDS011;26079;45.958;12.492;2024-01-15T09:49:15;52.92;;;39.85;;
40373;SDS011;26079;45.958;12.492;2024-01-15T09:51:42;59.97;;;43.45;;
40373;SDS011;26079;45.958;12.492;2024-01-15T09:54:08;57.63;;;40.28;;
40373;SDS011;26079;45.958;12.492;2024-01-15T09:56:35;53.75;;;38.60;;
40373;SDS011;26079;45.958;12.492;2024-01-15T09:59:01;53.00;;;39.17;;
40373;SDS011;26079;45.958;12.492;2024-01-15T10:01:29;51.67;;;40.38;;
40373;SDS011;26079;45.958;12.492;2024-01-15T10:03:57;56.88;;;36.20;;
40373;SDS011;26079;45.958;12.492;2024-01-15T10:06:23;48.78;;;38.13;;
40373;SDS011;26079;45.958;12.492;2024-01-15T10:08:55;50.92;;;39.90;;
40373;SDS011;26079;45.958;12.492;2024-01-15T10:11:23;51.35;;;39.95;;
40373;SDS011;26079;45.958;12.492;2024-01-15T10:13:49;56.25;;;39.13;;
40373;SDS011;26079;45.958;12.492;2024-01-15T10:16:21;59.97;;;38.90;;
40373;SDS011;26079;45.958;12.492;2024-01-15T10:18:47;49.22;;;38.15;;
40373;SDS011;26079;45.958;12.492;2024-01-15T10:21:13;67.53;;;52.20;;
40373;SDS011;26079;45.958;12.492;2024-01-15T10:23:39;64.28;;;45.13;;
40373;SDS011;26079;45.958;12.492;2024-01-15T10:26:05;48.13;;;38.17;;
40373;SDS011;26079;45.958;12.492;2024-01-15T10:28:31;50.70;;;38.92;;
40373;SDS011;26079;45.958;12.492;2024-01-15T10:30:58;44.60;;;37.53;;
40373;SDS011;26079;45.958;12.492;2024-01-15T10:33:24;51.85;;;38.00;;
40373;SDS011;26079;45.958;12.492;2024-01-15T10:35:53;46.20;;;35.83;;
40373;SDS011;26079;45.958;12.492;2024-01-15T10:38:20;48.88;;;33.13;;
40373;SDS011;26079;45.958;12.492;2024-01-15T10:40:47;40.05;;;32.97;;
40373;SDS011;26079;45.958;12.492;2024-01-15T10:43:16;49.42;;;32.10;;
40373;SDS011;26079;45.958;12.492;2024-01-15T10:45:43;36.35;;;28.35;;
40373;SDS011;26079;45.958;12.492;2024-01-15T10:48:18;34.78;;;27.30;;
40373;SDS011;26079;45.958;12.492;2024-01-15T10:50:45;29.52;;;26.40;;
40373;SDS011;26079;45.958;12.492;2024-01-15T10:53:13;55.17;;;30.08;;
40373;SDS011;26079;45.958;12.492;2024-01-15T10:55:42;30.00;;;24.05;;
40373;SDS011;26079;45.958;12.492;2024-01-15T10:58:08;31.83;;;24.15;;
40373;SDS011;26079;45.958;12.492;2024-01-15T11:00:35;30.73;;;24.92;;
40373;SDS011;26079;45.958;12.492;2024-01-15T11:03:03;39.90;;;26.00;;
40373;SDS011;26079;45.958;12.492;2024-01-15T11:05:51;32.47;;;27.00;;
40373;SDS011;26079;45.958;12.492;2024-01-15T11:08:18;30.67;;;24.95;;
40373;SDS011;26079;45.958;12.492;2024-01-15T11:10:47;31.27;;;24.58;;
40373;SDS011;26079;45.958;12.492;2024-01-15T11:13:20;28.30;;;23.05;;
40373;SDS011;26079;45.958;12.492;2024-01-15T11:15:55;25.98;;;22.45;;
40373;SDS011;26079;45.958;12.492;2024-01-15T11:18:31;24.35;;;19.15;;
40373;SDS011;26079;45.958;12.492;2024-01-15T11:21:27;26.52;;;21.10;;
40373;SDS011;26079;45.958;12.492;2024-01-15T11:23:58;22.75;;;19.35;;
40373;SDS011;26079;45.958;12.492;2024-01-15T11:28:59;25.02;;;18.20;;
40373;SDS011;26079;45.958;12.492;2024-01-15T11:31:27;22.42;;;17.30;;
40373;SDS011;26079;45.958;12.492;2024-01-15T11:33:54;20.15;;;16.95;;
40373;SDS011;26079;45.958;12.492;2024-01-15T11:36:21;26.70;;;20.42;;
40373;SDS011;26079;45.958;12.492;2024-01-15T11:41:55;35.88;;;23.48;;
40373;SDS011;26079;45.958;12.492;2024-01-15T11:44:29;29.98;;;19.65;;
40373;SDS011;26079;45.958;12.492;2024-01-15T11:47:01;24.77;;;19.30;;
40373;SDS011;26079;45.958;12.492;2024-01-15T11:52:06;22.13;;;18.73;;
40373;SDS011;26079;45.958;12.492;2024-01-15T11:54:33;25.83;;;17.60;;
40373;SDS011;26079;45.958;12.492;2024-01-15T11:57:10;24.08;;;18.50;;
40373;SDS011;26079;45.958;12.492;2024-01-15T11:59:44;19.77;;;17.70;;
40373;SDS011;26079;45.958;12.492;2024-01-15T12:02:10;21.50;;;16.88;;
40373;SDS011;26079;45.958;12.492;2024-01-15T12:04:38;28.45;;;18.77;;
40373;SDS011;26079;45.958;12.492;2024-01-15T12:07:04;19.25;;;16.92;;
40373;SDS011;26079;45.958;12.492;2024-01-15T12:09:30;21.00;;;16.25;;
40373;SDS011;26079;45.958;12.492;2024-01-15T12:11:57;28.02;;;23.00;;
40373;SDS011;26079;45.958;12.492;2024-01-15T12:14:36;20.13;;;16.65;;
40373;SDS011;26079;45.958;12.492;2024-01-15T12:17:03;20.50;;;17.45;;
40373;SDS011;26079;45.958;12.492;2024-01-15T12:19:29;20.90;;;16.90;;
40373;SDS011;26079;45.958;12.492;2024-01-15T12:21:57;24.40;;;17.30;;
40373;SDS011;26079;45.958;12.492;2024-01-15T12:24:23;19.88;;;16.25;;
40373;SDS011;26079;45.958;12.492;2024-01-15T12:26:49;18.48;;;16.23;;
40373;SDS011;26079;45.958;12.492;2024-01-15T12:29:17;18.33;;;15.85;;
40373;SDS011;26079;45.958;12.492;2024-01-15T12:31:43;22.98;;;15.15;;
40373;SDS011;26079;45.958;12.492;2024-01-15T12:34:13;18.65;;;15.20;;
40373;SDS011;26079;45.958;12.492;2024-01-15T12:36:40;22.58;;;18.83;;
40373;SDS011;26079;45.958;12.492;2024-01-15T12:39:06;17.45;;;15.25;;
40373;SDS011;26079;45.958;12.492;2024-01-15T12:41:36;23.92;;;19.15;;
40373;SDS011;26079;45.958;12.492;2024-01-15T12:44:03;31.38;;;21.35;;
40373;SDS011;26079;45.958;12.492;2024-01-15T12:46:29;24.15;;;19.10;;
40373;SDS011;26079;45.958;12.492;2024-01-15T12:48:55;23.58;;;16.45;;
40373;SDS011;26079;45.958;12.492;2024-01-15T12:51:25;19.42;;;16.17;;
40373;SDS011;26079;45.958;12.492;2024-01-15T12:53:51;21.05;;;17.15;;
40373;SDS011;26079;45.958;12.492;2024-01-15T12:56:17;21.35;;;17.70;;
40373;SDS011;26079;45.958;12.492;2024-01-15T12:58:43;20.95;;;16.05;;
40373;SDS011;26079;45.958;12.492;2024-01-15T13:01:09;19.98;;;17.67;;
40373;SDS011;26079;45.958;12.492;2024-01-15T13:03:35;21.02;;;17.75;;
40373;SDS011;26079;45.958;12.492;2024-01-15T13:06:01;18.98;;;15.20;;
40373;SDS011;26079;45.958;12.492;2024-01-15T13:08:26;19.65;;;15.77;;
40373;SDS011;26079;45.958;12.492;2024-01-15T13:10:54;19.67;;;15.02;;
40373;SDS011;26079;45.958;12.492;2024-01-15T13:13:22;19.95;;;15.90;;
40373;SDS011;26079;45.958;12.492;2024-01-15T13:15:48;20.33;;;15.93;;
40373;SDS011;26079;45.958;12.492;2024-01-15T13:18:13;19.77;;;16.05;;
40373;SDS011;26079;45.958;12.492;2024-01-15T13:20:39;20.77;;;16.52;;
40373;SDS011;26079;45.958;12.492;2024-01-15T13:23:05;19.25;;;14.20;;
40373;SDS011;26079;45.958;12.492;2024-01-15T13:25:31;19.10;;;15.02;;
40373;SDS011;26079;45.958;12.492;2024-01-15T13:27:57;20.40;;;14.30;;
40373;SDS011;26079;45.958;12.492;2024-01-15T13:30:23;19.15;;;15.32;;
40373;SDS011;26079;45.958;12.492;2024-01-15T13:32:48;20.25;;;16.63;;
40373;SDS011;26079;45.958;12.492;2024-01-15T13:35:14;25.55;;;16.63;;
40373;SDS011;26079;45.958;12.492;2024-01-15T13:37:40;24.92;;;19.25;;
40373;SDS011;26079;45.958;12.492;2024-01-15T13:40:09;19.88;;;16.77;;
40373;SDS011;26079;45.958;12.492;2024-01-15T13:42:41;20.55;;;16.88;;
40373;SDS011;26079;45.958;12.492;2024-01-15T13:45:07;19.13;;;16.67;;
40373;SDS011;26079;45.958;12.492;2024-01-15T13:47:33;20.65;;;16.52;;
40373;SDS011;26079;45.958;12.492;2024-01-15T13:50:07;20.20;;;17.55;;
40373;SDS011;26079;45.958;12.492;2024-01-15T13:52:33;21.10;;;18.13;;
40373;SDS011;26079;45.958;12.492;2024-01-15T13:54:59;21.40;;;16.38;;
40373;SDS011;26079;45.958;12.492;2024-01-15T13:57:25;21.10;;;18.80;;
40373;SDS011;26079;45.958;12.492;2024-01-15T13:59:59;21.50;;;18.02;;
40373;SDS011;26079;45.958;12.492;2024-01-15T14:02:27;23.88;;;16.85;;
40373;SDS011;26079;45.958;12.492;2024-01-15T14:04:55;22.65;;;18.17;;
40373;SDS011;26079;45.958;12.492;2024-01-15T14:07:23;25.27;;;19.35;;
40373;SDS011;26079;45.958;12.492;2024-01-15T14:09:52;23.13;;;17.60;;
40373;SDS011;26079;45.958;12.492;2024-01-15T14:12:36;22.60;;;17.10;;
40373;SDS011;26079;45.958;12.492;2024-01-15T14:15:13;21.58;;;17.25;;